sensor_id;sensor_type;location;lat;lon;timestamp;P1;durP1;ratioP1;P2;durP2;ratioP2
21245;SDS011;10781;50.928;4.440;2023-02-28T00:00:20;9.00;;;5.45;;
21245;SDS011;10781;50.928;4.440;2023-02-28T00:02:47;8.07;;;5.70;;
21245;SDS011;10781;50.928;4.440;2023-02-28T00:05:13;9.98;;;5.50;;
21245;SDS011;10781;50.928;4.440;2023-02-28T00:07:41;8.57;;;5.95;;
21245;SDS011;10781;50.928;4.440;2023-02-28T00:10:08;7.15;;;5.25;;
21245;SDS011;10781;50.928;4.440;2023-02-28T00:12:36;10.48;;;5.72;;
21245;SDS011;10781;50.928;4.440;2023-02-28T00:15:05;10.82;;;5.95;;
21245;SDS011;10781;50.928;4.440;2023-02-28T00:17:32;8.50;;;5.97;;
21245;SDS011;10781;50.928;4.440;2023-02-28T00:19:57;10.57;;;6.20;;
21245;SDS011;10781;50.928;4.440;2023-02-28T00:22:36;7.95;;;5.90;;
21245;SDS011;10781;50.928;4.440;2023-02-28T00:25:07;10.23;;;6.00;;
21245;SDS011;10781;50.928;4.440;2023-02-28T00:27:34;9.57;;;5.88;;
21245;SDS011;10781;50.928;4.440;2023-02-28T00:30:01;8.65;;;5.78;;
21245;SDS011;10781;50.928;4.440;2023-02-28T00:32:27;9.60;;;6.03;;
21245;SDS011;10781;50.928;4.440;2023-02-28T00:34:52;9.65;;;5.97;;
21245;SDS011;10781;50.928;4.440;2023-02-28T00:37:18;9.38;;;6.15;;
21245;SDS011;10781;50.928;4.440;2023-02-28T00:39:44;7.97;;;6.28;;
21245;SDS011;10781;50.928;4.440;2023-02-28T00:42:09;11.30;;;6.32;;
21245;SDS011;10781;50.928;4.440;2023-02-28T00:44:35;9.43;;;6.28;;
21245;SDS011;10781;50.928;4.440;2023-02-28T00:47:01;8.55;;;6.32;;
21245;SDS011;10781;50.928;4.440;2023-02-28T00:49:26;10.52;;;6.28;;
21245;SDS011;10781;50.928;4.440;2023-02-28T00:51:53;7.35;;;5.88;;
21245;SDS011;10781;50.928;4.440;2023-02-28T00:54:20;8.60;;;6.13;;
21245;SDS011;10781;50.928;4.440;2023-02-28T00:56:46;8.93;;;5.95;;
21245;SDS011;10781;50.928;4.440;2023-02-28T00:59:12;8.13;;;5.63;;
21245;SDS011;10781;50.928;4.440;2023-02-28T01:01:39;9.43;;;5.93;;
21245;SDS011;10781;50.928;4.440;2023-02-28T01:04:05;10.80;;;6.20;;
21245;SDS011;10781;50.928;4.440;2023-02-28T01:06:31;9.90;;;6.47;;
21245;SDS011;10781;50.928;4.440;2023-02-28T01:08:57;9.30;;;6.13;;
21245;SDS011;10781;50.928;4.440;2023-02-28T01:11:23;8.73;;;5.95;;
21245;SDS011;10781;50.928;4.440;2023-02-28T01:13:49;9.32;;;6.28;;
21245;SDS011;10781;50.928;4.440;2023-02-28T01:16:15;9.93;;;6.43;;
21245;SDS011;10781;50.928;4.440;2023-02-28T01:18:40;8.65;;;6.55;;
21245;SDS011;10781;50.928;4.440;2023-02-28T01:21:07;11.02;;;6.07;;
21245;SDS011;10781;50.928;4.440;2023-02-28T01:23:38;9.13;;;6.38;;
21245;SDS011;10781;50.928;4.440;2023-02-28T01:26:06;17.27;;;6.68;;
21245;SDS011;10781;50.928;4.440;2023-02-28T01:28:36;10.32;;;5.93;;
21245;SDS011;10781;50.928;4.440;2023-02-28T01:31:01;9.27;;;6.32;;
21245;SDS011;10781;50.928;4.440;2023-02-28T01:33:27;12.85;;;7.47;;
21245;SDS011;10781;50.928;4.440;2023-02-28T01:38:25;10.02;;;6.28;;
21245;SDS011;10781;50.928;4.440;2023-02-28T01:40:52;9.25;;;6.20;;
21245;SDS011;10781;50.928;4.440;2023-02-28T01:43:25;10.18;;;6.47;;
21245;SDS011;10781;50.928;4.440;2023-02-28T01:45:53;7.93;;;6.43;;
21245;SDS011;10781;50.928;4.440;2023-02-28T01:48:21;10.23;;;6.70;;
21245;SDS011;10781;50.928;4.440;2023-02-28T01:50:51;8.48;;;6.60;;
21245;SDS011;10781;50.928;4.440;2023-02-28T01:53:18;7.93;;;6.43;;
21245;SDS011;10781;50.928;4.440;2023-02-28T01:55:47;10.07;;;6.88;;
21245;SDS011;10781;50.928;4.440;2023-02-28T01:58:14;11.23;;;7.22;;
21245;SDS011;10781;50.928;4.440;2023-02-28T02:00:41;9.70;;;7.07;;
21245;SDS011;10781;50.928;4.440;2023-02-28T02:03:12;11.88;;;6.70;;
21245;SDS011;10781;50.928;4.440;2023-02-28T02:05:40;12.65;;;7.55;;
21245;SDS011;10781;50.928;4.440;2023-02-28T02:08:08;10.43;;;7.53;;
21245;SDS011;10781;50.928;4.440;2023-02-28T02:10:40;11.38;;;6.85;;
21245;SDS011;10781;50.928;4.440;2023-02-28T02:18:31;13.07;;;6.97;;
21245;SDS011;10781;50.928;4.440;2023-02-28T02:27:20;10.93;;;7.28;;
21245;SDS011;10781;50.928;4.440;2023-02-28T02:38:30;13.68;;;7.22;;
21245;SDS011;10781;50.928;4.440;2023-02-28T02:44:18;9.20;;;7.68;;
21245;SDS011;10781;50.928;4.440;2023-02-28T02:46:47;12.27;;;7.97;;
21245;SDS011;10781;50.928;4.440;2023-02-28T02:49:15;13.68;;;7.90;;
21245;SDS011;10781;50.928;4.440;2023-02-28T02:51:46;12.18;;;7.50;;
21245;SDS011;10781;50.928;4.440;2023-02-28T02:54:14;11.88;;;7.50;;
21245;SDS011;10781;50.928;4.440;2023-02-28T02:56:44;13.02;;;7.95;;
21245;SDS011;10781;50.928;4.440;2023-02-28T02:59:12;11.07;;;7.63;;
21245;SDS011;10781;50.928;4.440;2023-02-28T03:01:45;15.07;;;8.50;;
21245;SDS011;10781;50.928;4.440;2023-02-28T03:04:19;12.75;;;8.45;;
21245;SDS011;10781;50.928;4.440;2023-02-28T03:06:46;18.17;;;11.23;;
21245;SDS011;10781;50.928;4.440;2023-02-28T03:09:12;15.35;;;8.07;;
21245;SDS011;10781;50.928;4.440;2023-02-28T03:11:38;14.32;;;8.55;;
21245;SDS011;10781;50.928;4.440;2023-02-28T03:24:54;21.05;;;13.38;;
21245;SDS011;10781;50.928;4.440;2023-02-28T03:27:54;13.73;;;8.00;;
21245;SDS011;10781;50.928;4.440;2023-02-28T03:33:20;13.43;;;8.30;;
21245;SDS011;10781;50.928;4.440;2023-02-28T03:35:58;12.40;;;8.48;;
21245;SDS011;10781;50.928;4.440;2023-02-28T03:41:14;12.68;;;8.35;;
21245;SDS011;10781;50.928;4.440;2023-02-28T03:43:49;14.63;;;7.72;;
21245;SDS011;10781;50.928;4.440;2023-02-28T03:46:21;13.95;;;8.43;;
21245;SDS011;10781;50.928;4.440;2023-02-28T03:49:13;12.60;;;8.13;;
21245;SDS011;10781;50.928;4.440;2023-02-28T03:51:42;14.40;;;8.68;;
21245;SDS011;10781;50.928;4.440;2023-02-28T03:54:30;13.45;;;8.05;;
21245;SDS011;10781;50.928;4.440;2023-02-28T03:57:02;15.70;;;8.60;;
21245;SDS011;10781;50.928;4.440;2023-02-28T03:59:46;15.52;;;7.88;;
21245;SDS011;10781;50.928;4.440;2023-02-28T04:02:19;12.20;;;7.65;;
21245;SDS011;10781;50.928;4.440;2023-02-28T04:04:45;12.80;;;8.30;;
21245;SDS011;10781;50.928;4.440;2023-02-28T04:07:13;13.88;;;8.32;;
21245;SDS011;10781;50.928;4.440;2023-02-28T04:09:39;16.85;;;8.90;;
21245;SDS011;10781;50.928;4.440;2023-02-28T04:12:05;12.02;;;8.50;;
21245;SDS011;10781;50.928;4.440;2023-02-28T04:14:31;15.70;;;8.95;;
21245;SDS011;10781;50.928;4.440;2023-02-28T04:16:57;14.13;;;8.65;;
21245;SDS011;10781;50.928;4.440;2023-02-28T04:19:22;14.73;;;8.70;;
21245;SDS011;10781;50.928;4.440;2023-02-28T04:21:49;15.13;;;8.25;;
21245;SDS011;10781;50.928;4.440;2023-02-28T04:24:17;12.75;;;8.63;;
21245;SDS011;10781;50.928;4.440;2023-02-28T04:26:49;12.70;;;8.73;;
21245;SDS011;10781;50.928;4.440;2023-02-28T04:29:21;12.75;;;8.43;;
21245;SDS011;10781;50.928;4.440;2023-02-28T04:31:49;14.38;;;8.55;;
21245;SDS011;10781;50.928;4.440;2023-02-28T04:34:15;12.85;;;8.32;;
21245;SDS011;10781;50.928;4.440;2023-02-28T04:36:41;15.05;;;8.65;;
21245;SDS011;10781;50.928;4.440;2023-02-28T04:39:07;11.13;;;7.80;;
21245;SDS011;10781;50.928;4.440;2023-02-28T04:41:34;13.65;;;8.80;;
21245;SDS011;10781;50.928;4.440;2023-02-28T04:44:00;14.25;;;8.57;;
21245;SDS011;10781;50.928;4.440;2023-02-28T04:46:26;12.80;;;8.80;;
21245;SDS011;10781;50.928;4.440;2023-02-28T04:48:51;14.75;;;9.05;;
21245;SDS011;10781;50.928;4.440;2023-02-28T04:51:18;11.65;;;8.38;;
21245;SDS011;10781;50.928;4.440;2023-02-28T04:53:44;13.68;;;8.18;;
21245;SDS011;10781;50.928;4.440;2023-02-28T04:56:11;13.48;;;8.73;;
21245;SDS011;10781;50.928;4.440;2023-02-28T04:58:38;12.65;;;8.27;;
21245;SDS011;10781;50.928;4.440;2023-02-28T05:01:05;11.68;;;8.00;;
21245;SDS011;10781;50.928;4.440;2023-02-28T05:03:40;13.98;;;8.13;;
21245;SDS011;10781;50.928;4.440;2023-02-28T05:06:06;13.57;;;8.02;;
21245;SDS011;10781;50.928;4.440;2023-02-28T05:08:33;14.57;;;9.07;;
21245;SDS011;10781;50.928;4.440;2023-02-28T05:10:59;13.85;;;8.60;;
21245;SDS011;10781;50.928;4.440;2023-02-28T05:13:28;15.90;;;8.63;;
21245;SDS011;10781;50.928;4.440;2023-02-28T05:15:54;11.20;;;8.15;;
21245;SDS011;10781;50.928;4.440;2023-02-28T05:18:20;10.05;;;7.82;;
21245;SDS011;10781;50.928;4.440;2023-02-28T05:20:46;15.05;;;8.48;;
21245;SDS011;10781;50.928;4.440;2023-02-28T05:23:12;11.80;;;7.63;;
21245;SDS011;10781;50.928;4.440;2023-02-28T05:25:39;16.40;;;8.32;;
21245;SDS011;10781;50.928;4.440;2023-02-28T05:28:05;10.55;;;7.28;;
21245;SDS011;10781;50.928;4.440;2023-02-28T05:30:31;13.35;;;8.35;;
21245;SDS011;10781;50.928;4.440;2023-02-28T05:32:57;14.73;;;7.93;;
21245;SDS011;10781;50.928;4.440;2023-02-28T05:35:24;12.68;;;7.65;;
21245;SDS011;10781;50.928;4.440;2023-02-28T05:37:50;11.20;;;8.10;;
21245;SDS011;10781;50.928;4.440;2023-02-28T05:40:16;13.18;;;7.90;;
21245;SDS011;10781;50.928;4.440;2023-02-28T05:42:42;11.98;;;8.40;;
21245;SDS011;10781;50.928;4.440;2023-02-28T05:45:08;12.18;;;7.93;;
21245;SDS011;10781;50.928;4.440;2023-02-28T05:47:34;13.00;;;8.57;;
21245;SDS011;10781;50.928;4.440;2023-02-28T05:50:00;12.90;;;7.88;;
21245;SDS011;10781;50.928;4.440;2023-02-28T05:52:26;12.20;;;8.02;;
21245;SDS011;10781;50.928;4.440;2023-02-28T05:54:53;12.90;;;8.02;;
21245;SDS011;10781;50.928;4.440;2023-02-28T05:57:18;15.20;;;8.32;;
21245;SDS011;10781;50.928;4.440;2023-02-28T05:59:44;10.38;;;8.23;;
21245;SDS011;10781;50.928;4.440;2023-02-28T06:02:14;12.90;;;8.30;;
21245;SDS011;10781;50.928;4.440;2023-02-28T06:04:42;12.07;;;7.93;;
21245;SDS011;10781;50.928;4.440;2023-02-28T06:07:09;12.18;;;8.07;;
21245;SDS011;10781;50.928;4.440;2023-02-28T06:09:35;11.77;;;7.93;;
21245;SDS011;10781;50.928;4.440;2023-02-28T06:12:01;11.35;;;7.50;;
21245;SDS011;10781;50.928;4.440;2023-02-28T06:14:30;11.57;;;8.13;;
21245;SDS011;10781;50.928;4.440;2023-02-28T06:16:58;12.88;;;7.63;;
21245;SDS011;10781;50.928;4.440;2023-02-28T06:19:25;12.30;;;7.78;;
21245;SDS011;10781;50.928;4.440;2023-02-28T06:21:51;13.00;;;8.18;;
21245;SDS011;10781;50.928;4.440;2023-02-28T06:24:23;13.27;;;8.00;;
21245;SDS011;10781;50.928;4.440;2023-02-28T06:26:52;15.35;;;9.27;;
21245;SDS011;10781;50.928;4.440;2023-02-28T06:29:18;13.38;;;7.72;;
21245;SDS011;10781;50.928;4.440;2023-02-28T06:31:44;9.68;;;7.00;;
21245;SDS011;10781;50.928;4.440;2023-02-28T06:34:11;11.57;;;7.13;;
21245;SDS011;10781;50.928;4.440;2023-02-28T06:36:37;11.73;;;7.47;;
21245;SDS011;10781;50.928;4.440;2023-02-28T06:39:04;12.02;;;7.63;;
21245;SDS011;10781;50.928;4.440;2023-02-28T06:41:30;10.98;;;7.43;;
21245;SDS011;10781;50.928;4.440;2023-02-28T06:43:55;15.98;;;7.90;;
21245;SDS011;10781;50.928;4.440;2023-02-28T06:46:22;11.75;;;7.60;;
21245;SDS011;10781;50.928;4.440;2023-02-28T06:48:48;11.73;;;7.60;;
21245;SDS011;10781;50.928;4.440;2023-02-28T06:51:15;11.55;;;7.38;;
21245;SDS011;10781;50.928;4.440;2023-02-28T06:53:42;12.05;;;7.20;;
21245;SDS011;10781;50.928;4.440;2023-02-28T06:56:09;12.15;;;7.32;;
21245;SDS011;10781;50.928;4.440;2023-02-28T06:58:36;12.45;;;7.80;;
21245;SDS011;10781;50.928;4.440;2023-02-28T07:01:02;11.45;;;7.20;;
21245;SDS011;10781;50.928;4.440;2023-02-28T07:03:29;11.25;;;7.78;;
21245;SDS011;10781;50.928;4.440;2023-02-28T07:05:55;11.50;;;7.60;;
21245;SDS011;10781;50.928;4.440;2023-02-28T07:08:24;10.40;;;7.35;;
21245;SDS011;10781;50.928;4.440;2023-02-28T07:10:53;12.07;;;7.40;;
21245;SDS011;10781;50.928;4.440;2023-02-28T07:13:20;13.68;;;7.45;;
21245;SDS011;10781;50.928;4.440;2023-02-28T07:15:56;12.30;;;7.63;;
21245;SDS011;10781;50.928;4.440;2023-02-28T07:18:23;9.93;;;7.20;;
21245;SDS011;10781;50.928;4.440;2023-02-28T07:20:50;10.57;;;7.35;;
21245;SDS011;10781;50.928;4.440;2023-02-28T07:23:16;13.77;;;7.70;;
21245;SDS011;10781;50.928;4.440;2023-02-28T07:25:42;12.15;;;7.15;;
21245;SDS011;10781;50.928;4.440;2023-02-28T07:28:08;10.60;;;7.65;;
21245;SDS011;10781;50.928;4.440;2023-02-28T07:30:34;12.55;;;7.15;;
21245;SDS011;10781;50.928;4.440;2023-02-28T07:33:00;11.95;;;7.53;;
21245;SDS011;10781;50.928;4.440;2023-02-28T07:35:25;10.80;;;7.43;;
21245;SDS011;10781;50.928;4.440;2023-02-28T07:37:51;11.20;;;7.13;;
21245;SDS011;10781;50.928;4.440;2023-02-28T07:40:16;9.63;;;7.10;;
21245;SDS011;10781;50.928;4.440;2023-02-28T07:42:43;10.90;;;7.28;;
21245;SDS011;10781;50.928;4.440;2023-02-28T07:45:09;12.98;;;7.30;;
21245;SDS011;10781;50.928;4.440;2023-02-28T07:47:36;11.75;;;7.07;;
21245;SDS011;10781;50.928;4.440;2023-02-28T07:50:04;8.18;;;6.53;;
21245;SDS011;10781;50.928;4.440;2023-02-28T07:52:31;8.55;;;6.35;;
21245;SDS011;10781;50.928;4.440;2023-02-28T07:54:57;11.45;;;6.38;;
21245;SDS011;10781;50.928;4.440;2023-02-28T07:57:23;11.27;;;6.35;;
21245;SDS011;10781;50.928;4.440;2023-02-28T07:59:49;10.52;;;6.25;;
21245;SDS011;10781;50.928;4.440;2023-02-28T08:02:18;10.38;;;6.43;;
21245;SDS011;10781;50.928;4.440;2023-02-28T08:04:44;10.57;;;6.35;;
21245;SDS011;10781;50.928;4.440;2023-02-28T08:07:12;11.27;;;6.35;;
21245;SDS011;10781;50.928;4.440;2023-02-28T08:09:38;8.38;;;6.07;;
21245;SDS011;10781;50.928;4.440;2023-02-28T08:12:04;11.10;;;6.30;;
21245;SDS011;10781;50.928;4.440;2023-02-28T08:14:31;8.25;;;5.78;;
21245;SDS011;10781;50.928;4.440;2023-02-28T08:16:57;8.35;;;5.72;;
21245;SDS011;10781;50.928;4.440;2023-02-28T08:19:23;6.90;;;4.93;;
21245;SDS011;10781;50.928;4.440;2023-02-28T08:21:48;7.00;;;4.90;;
21245;SDS011;10781;50.928;4.440;2023-02-28T08:24:14;6.68;;;4.47;;
21245;SDS011;10781;50.928;4.440;2023-02-28T08:26:40;6.47;;;4.47;;
21245;SDS011;10781;50.928;4.440;2023-02-28T08:29:05;6.55;;;4.35;;
21245;SDS011;10781;50.928;4.440;2023-02-28T08:31:31;7.10;;;4.53;;
21245;SDS011;10781;50.928;4.440;2023-02-28T08:33:56;6.25;;;3.92;;
21245;SDS011;10781;50.928;4.440;2023-02-28T08:36:24;5.85;;;3.78;;
21245;SDS011;10781;50.928;4.440;2023-02-28T08:38:50;6.65;;;4.50;;
21245;SDS011;10781;50.928;4.440;2023-02-28T08:41:16;5.25;;;3.83;;
21245;SDS011;10781;50.928;4.440;2023-02-28T08:43:41;5.55;;;3.53;;
21245;SDS011;10781;50.928;4.440;2023-02-28T08:46:08;6.07;;;3.47;;
21245;SDS011;10781;50.928;4.440;2023-02-28T08:48:37;4.05;;;3.20;;
21245;SDS011;10781;50.928;4.440;2023-02-28T08:51:07;5.40;;;3.13;;
21245;SDS011;10781;50.928;4.440;2023-02-28T08:53:36;4.30;;;3.38;;
21245;SDS011;10781;50.928;4.440;2023-02-28T08:56:03;4.28;;;3.35;;
21245;SDS011;10781;50.928;4.440;2023-02-28T08:58:39;5.25;;;3.30;;
21245;SDS011;10781;50.928;4.440;2023-02-28T09:01:15;4.40;;;3.30;;
21245;SDS011;10781;50.928;4.440;2023-02-28T09:03:46;7.65;;;3.47;;
21245;SDS011;10781;50.928;4.440;2023-02-28T09:06:14;4.75;;;3.50;;
21245;SDS011;10781;50.928;4.440;2023-02-28T09:08:41;8.27;;;3.70;;
21245;SDS011;10781;50.928;4.440;2023-02-28T09:11:06;6.03;;;3.78;;
21245;SDS011;10781;50.928;4.440;2023-02-28T09:13:32;7.10;;;3.35;;
21245;SDS011;10781;50.928;4.440;2023-02-28T09:15:59;4.60;;;3.47;;
21245;SDS011;10781;50.928;4.440;2023-02-28T09:18:26;6.53;;;3.15;;
21245;SDS011;10781;50.928;4.440;2023-02-28T09:20:53;7.07;;;3.70;;
21245;SDS011;10781;50.928;4.440;2023-02-28T09:23:18;4.22;;;2.40;;
21245;SDS011;10781;50.928;4.440;2023-02-28T09:25:45;4.53;;;2.85;;
21245;SDS011;10781;50.928;4.440;2023-02-28T09:28:12;4.72;;;2.97;;
21245;SDS011;10781;50.928;4.440;2023-02-28T09:30:40;4.22;;;3.20;;
21245;SDS011;10781;50.928;4.440;2023-02-28T09:33:07;4.68;;;2.90;;
21245;SDS011;10781;50.928;4.440;2023-02-28T09:35:32;5.72;;;2.88;;
21245;SDS011;10781;50.928;4.440;2023-02-28T09:37:58;4.07;;;2.97;;
21245;SDS011;10781;50.928;4.440;2023-02-28T09:40:24;4.03;;;2.08;;
21245;SDS011;10781;50.928;4.440;2023-02-28T09:42:51;5.07;;;2.20;;
21245;SDS011;10781;50.928;4.440;2023-02-28T09:45:33;3.20;;;2.50;;
21245;SDS011;10781;50.928;4.440;2023-02-28T09:48:11;3.47;;;2.65;;
21245;SDS011;10781;50.928;4.440;2023-02-28T09:50:41;3.55;;;2.72;;
21245;SDS011;10781;50.928;4.440;2023-02-28T09:53:32;4.00;;;2.67;;
21245;SDS011;10781;50.928;4.440;2023-02-28T09:56:19;3.95;;;2.63;;
21245;SDS011;10781;50.928;4.440;2023-02-28T09:58:59;5.15;;;2.42;;
21245;SDS011;10781;50.928;4.440;2023-02-28T10:07:07;3.35;;;2.40;;
21245;SDS011;10781;50.928;4.440;2023-02-28T10:09:45;3.05;;;2.20;;
21245;SDS011;10781;50.928;4.440;2023-02-28T10:12:15;4.95;;;2.70;;
21245;SDS011;10781;50.928;4.440;2023-02-28T10:14:43;6.85;;;2.58;;
21245;SDS011;10781;50.928;4.440;2023-02-28T10:17:13;2.85;;;2.55;;
21245;SDS011;10781;50.928;4.440;2023-02-28T10:22:20;4.60;;;2.70;;
21245;SDS011;10781;50.928;4.440;2023-02-28T10:24:52;2.60;;;2.35;;
21245;SDS011;10781;50.928;4.440;2023-02-28T10:27:25;4.70;;;2.55;;
21245;SDS011;10781;50.928;4.440;2023-02-28T10:29:57;3.75;;;2.95;;
21245;SDS011;10781;50.928;4.440;2023-02-28T10:32:27;3.38;;;2.40;;
21245;SDS011;10781;50.928;4.440;2023-02-28T10:35:00;5.18;;;2.10;;
21245;SDS011;10781;50.928;4.440;2023-02-28T10:37:32;2.90;;;2.08;;
21245;SDS011;10781;50.928;4.440;2023-02-28T10:40:03;3.50;;;1.80;;
21245;SDS011;10781;50.928;4.440;2023-02-28T10:42:31;2.33;;;1.60;;
21245;SDS011;10781;50.928;4.440;2023-02-28T10:45:14;2.03;;;1.52;;
21245;SDS011;10781;50.928;4.440;2023-02-28T10:47:55;1.85;;;1.70;;
21245;SDS011;10781;50.928;4.440;2023-02-28T11:03:57;3.05;;;1.85;;
21245;SDS011;10781;50.928;4.440;2023-02-28T11:06:28;2.38;;;1.52;;
21245;SDS011;10781;50.928;4.440;2023-02-28T11:08:56;2.22;;;1.67;;
21245;SDS011;10781;50.928;4.440;2023-02-28T11:11:25;1.80;;;1.63;;
21245;SDS011;10781;50.928;4.440;2023-02-28T11:13:54;1.67;;;1.58;;
21245;SDS011;10781;50.928;4.440;2023-02-28T11:16:30;3.13;;;1.77;;
21245;SDS011;10781;50.928;4.440;2023-02-28T11:18:58;2.17;;;1.60;;
21245;SDS011;10781;50.928;4.440;2023-02-28T11:23:51;2.95;;;1.95;;
21245;SDS011;10781;50.928;4.440;2023-02-28T11:29:26;2.20;;;1.73;;
21245;SDS011;10781;50.928;4.440;2023-02-28T11:34:41;3.10;;;2.20;;
21245;SDS011;10781;50.928;4.440;2023-02-28T11:37:26;2.33;;;1.73;;
21245;SDS011;10781;50.928;4.440;2023-02-28T11:39:53;3.40;;;1.83;;
21245;SDS011;10781;50.928;4.440;2023-02-28T11:56:37;2.60;;;2.05;;
21245;SDS011;10781;50.928;4.440;2023-02-28T11:59:11;5.28;;;2.08;;
21245;SDS011;10781;50.928;4.440;2023-02-28T12:10:52;2.13;;;1.92;;
21245;SDS011;10781;50.928;4.440;2023-02-28T12:13:34;2.58;;;1.95;;
21245;SDS011;10781;50.928;4.440;2023-02-28T12:16:23;2.67;;;2.20;;
21245;SDS011;10781;50.928;4.440;2023-02-28T12:19:17;2.90;;;2.20;;
21245;SDS011;10781;50.928;4.440;2023-02-28T12:27:20;2.20;;;2.00;;
21245;SDS011;10781;50.928;4.440;2023-02-28T12:29:51;3.28;;;2.42;;
21245;SDS011;10781;50.928;4.440;2023-02-28T12:32:33;2.20;;;1.98;;
21245;SDS011;10781;50.928;4.440;2023-02-28T12:43:55;2.50;;;2.13;;
21245;SDS011;10781;50.928;4.440;2023-02-28T12:49:00;2.10;;;1.90;;
21245;SDS011;10781;50.928;4.440;2023-02-28T12:51:31;2.10;;;1.80;;
21245;SDS011;10781;50.928;4.440;2023-02-28T12:54:04;2.92;;;2.20;;
21245;SDS011;10781;50.928;4.440;2023-02-28T12:57:07;2.97;;;2.22;;
21245;SDS011;10781;50.928;4.440;2023-02-28T12:59:51;2.90;;;2.10;;
21245;SDS011;10781;50.928;4.440;2023-02-28T13:10:45;3.13;;;2.30;;
21245;SDS011;10781;50.928;4.440;2023-02-28T13:13:18;2.53;;;2.15;;
21245;SDS011;10781;50.928;4.440;2023-02-28T13:15:56;2.60;;;1.85;;
21245;SDS011;10781;50.928;4.440;2023-02-28T13:18:29;3.70;;;2.47;;
21245;SDS011;10781;50.928;4.440;2023-02-28T13:20:55;2.97;;;2.67;;
21245;SDS011;10781;50.928;4.440;2023-02-28T13:26:31;2.92;;;2.20;;
21245;SDS011;10781;50.928;4.440;2023-02-28T13:34:31;2.45;;;2.10;;
21245;SDS011;10781;50.928;4.440;2023-02-28T13:47:43;2.30;;;2.08;;
21245;SDS011;10781;50.928;4.440;2023-02-28T14:01:07;3.95;;;2.45;;
21245;SDS011;10781;50.928;4.440;2023-02-28T14:06:29;3.25;;;2.30;;
21245;SDS011;10781;50.928;4.440;2023-02-28T14:09:01;2.92;;;2.17;;
21245;SDS011;10781;50.928;4.440;2023-02-28T14:14:04;3.85;;;3.40;;
21245;SDS011;10781;50.928;4.440;2023-02-28T14:16:40;2.40;;;2.20;;
21245;SDS011;10781;50.928;4.440;2023-02-28T14:19:19;3.03;;;2.60;;
21245;SDS011;10781;50.928;4.440;2023-02-28T14:24:24;2.65;;;2.33;;
21245;SDS011;10781;50.928;4.440;2023-02-28T14:35:39;2.42;;;2.22;;
21245;SDS011;10781;50.928;4.440;2023-02-28T14:38:28;4.00;;;2.40;;
21245;SDS011;10781;50.928;4.440;2023-02-28T14:41:03;2.85;;;2.58;;
21245;SDS011;10781;50.928;4.440;2023-02-28T14:43:46;3.75;;;2.88;;
21245;SDS011;10781;50.928;4.440;2023-02-28T14:46:17;3.40;;;2.80;;
21245;SDS011;10781;50.928;4.440;2023-02-28T14:48:45;3.95;;;3.40;;
21245;SDS011;10781;50.928;4.440;2023-02-28T14:51:18;3.67;;;3.33;;
21245;SDS011;10781;50.928;4.440;2023-02-28T14:53:49;3.22;;;2.90;;
21245;SDS011;10781;50.928;4.440;2023-02-28T14:56:21;4.22;;;3.10;;
21245;SDS011;10781;50.928;4.440;2023-02-28T14:58:53;2.83;;;2.63;;
21245;SDS011;10781;50.928;4.440;2023-02-28T15:01:21;3.20;;;2.90;;
21245;SDS011;10781;50.928;4.440;2023-02-28T15:03:47;4.00;;;2.90;;
21245;SDS011;10781;50.928;4.440;2023-02-28T15:06:22;4.03;;;3.10;;
21245;SDS011;10781;50.928;4.440;2023-02-28T15:08:56;3.25;;;2.75;;
21245;SDS011;10781;50.928;4.440;2023-02-28T15:11:36;4.28;;;2.58;;
21245;SDS011;10781;50.928;4.440;2023-02-28T15:14:03;4.03;;;2.80;;
21245;SDS011;10781;50.928;4.440;2023-02-28T15:16:34;14.52;;;11.32;;
21245;SDS011;10781;50.928;4.440;2023-02-28T15:19:05;8.07;;;5.95;;
21245;SDS011;10781;50.928;4.440;2023-02-28T15:21:41;3.33;;;2.65;;
21245;SDS011;10781;50.928;4.440;2023-02-28T15:24:13;3.55;;;2.50;;
21245;SDS011;10781;50.928;4.440;2023-02-28T15:26:48;5.05;;;2.90;;
21245;SDS011;10781;50.928;4.440;2023-02-28T15:29:20;4.55;;;2.90;;
21245;SDS011;10781;50.928;4.440;2023-02-28T15:31:49;3.45;;;3.00;;
21245;SDS011;10781;50.928;4.440;2023-02-28T15:34:21;5.90;;;3.10;;
21245;SDS011;10781;50.928;4.440;2023-02-28T15:36:51;3.20;;;2.70;;
21245;SDS011;10781;50.928;4.440;2023-02-28T15:39:24;4.78;;;3.10;;
21245;SDS011;10781;50.928;4.440;2023-02-28T15:42:18;3.63;;;3.05;;
21245;SDS011;10781;50.928;4.440;2023-02-28T15:44:45;3.50;;;3.08;;
21245;SDS011;10781;50.928;4.440;2023-02-28T15:47:16;3.00;;;2.70;;
21245;SDS011;10781;50.928;4.440;2023-02-28T15:49:50;2.90;;;2.60;;
21245;SDS011;10781;50.928;4.440;2023-02-28T15:52:29;3.10;;;2.63;;
21245;SDS011;10781;50.928;4.440;2023-02-28T15:55:17;3.42;;;2.72;;
21245;SDS011;10781;50.928;4.440;2023-02-28T15:57:50;3.22;;;2.70;;
21245;SDS011;10781;50.928;4.440;2023-02-28T16:00:19;5.25;;;2.70;;
21245;SDS011;10781;50.928;4.440;2023-02-28T16:02:47;2.97;;;2.50;;
21245;SDS011;10781;50.928;4.440;2023-02-28T16:07:39;4.75;;;2.85;;
21245;SDS011;10781;50.928;4.440;2023-02-28T16:10:06;3.67;;;2.83;;
21245;SDS011;10781;50.928;4.440;2023-02-28T16:12:33;4.25;;;2.78;;
21245;SDS011;10781;50.928;4.440;2023-02-28T16:15:03;5.00;;;2.97;;
21245;SDS011;10781;50.928;4.440;2023-02-28T16:17:33;23.25;;;14.70;;
21245;SDS011;10781;50.928;4.440;2023-02-28T16:20:06;18.02;;;11.73;;
21245;SDS011;10781;50.928;4.440;2023-02-28T16:22:42;10.88;;;8.20;;
21245;SDS011;10781;50.928;4.440;2023-02-28T16:25:11;32.90;;;20.40;;
21245;SDS011;10781;50.928;4.440;2023-02-28T16:27:42;5.45;;;3.55;;
21245;SDS011;10781;50.928;4.440;2023-02-28T16:30:15;3.85;;;3.08;;
21245;SDS011;10781;50.928;4.440;2023-02-28T16:32:47;3.63;;;3.30;;
21245;SDS011;10781;50.928;4.440;2023-02-28T16:35:14;8.15;;;3.38;;
21245;SDS011;10781;50.928;4.440;2023-02-28T16:37:40;5.32;;;3.25;;
21245;SDS011;10781;50.928;4.440;2023-02-28T16:40:08;5.63;;;3.13;;
21245;SDS011;10781;50.928;4.440;2023-02-28T16:42:46;4.47;;;3.20;;
21245;SDS011;10781;50.928;4.440;2023-02-28T16:45:22;4.25;;;2.90;;
21245;SDS011;10781;50.928;4.440;2023-02-28T16:47:49;4.95;;;3.40;;
21245;SDS011;10781;50.928;4.440;2023-02-28T16:50:17;4.90;;;3.00;;
21245;SDS011;10781;50.928;4.440;2023-02-28T16:52:44;5.60;;;3.40;;
21245;SDS011;10781;50.928;4.440;2023-02-28T16:55:10;4.35;;;3.15;;
21245;SDS011;10781;50.928;4.440;2023-02-28T16:57:37;4.82;;;3.80;;
21245;SDS011;10781;50.928;4.440;2023-02-28T17:00:05;6.30;;;3.55;;
21245;SDS011;10781;50.928;4.440;2023-02-28T17:02:33;4.35;;;3.47;;
21245;SDS011;10781;50.928;4.440;2023-02-28T17:04:59;4.88;;;3.22;;
21245;SDS011;10781;50.928;4.440;2023-02-28T17:07:25;5.95;;;3.65;;
21245;SDS011;10781;50.928;4.440;2023-02-28T17:09:51;5.18;;;3.30;;
21245;SDS011;10781;50.928;4.440;2023-02-28T17:12:16;4.75;;;3.53;;
21245;SDS011;10781;50.928;4.440;2023-02-28T17:14:42;6.68;;;4.65;;
21245;SDS011;10781;50.928;4.440;2023-02-28T17:17:09;5.25;;;3.90;;
21245;SDS011;10781;50.928;4.440;2023-02-28T17:19:45;14.50;;;9.85;;
21245;SDS011;10781;50.928;4.440;2023-02-28T17:22:10;8.23;;;4.13;;
21245;SDS011;10781;50.928;4.440;2023-02-28T17:24:36;4.82;;;3.40;;
21245;SDS011;10781;50.928;4.440;2023-02-28T17:27:02;4.40;;;3.22;;
21245;SDS011;10781;50.928;4.440;2023-02-28T17:29:28;5.43;;;3.80;;
21245;SDS011;10781;50.928;4.440;2023-02-28T17:31:53;5.88;;;3.55;;
21245;SDS011;10781;50.928;4.440;2023-02-28T17:34:20;5.60;;;4.10;;
21245;SDS011;10781;50.928;4.440;2023-02-28T17:36:47;5.57;;;3.50;;
21245;SDS011;10781;50.928;4.440;2023-02-28T17:39:15;5.00;;;3.90;;
21245;SDS011;10781;50.928;4.440;2023-02-28T17:41:52;4.88;;;3.75;;
21245;SDS011;10781;50.928;4.440;2023-02-28T17:44:19;4.53;;;3.42;;
21245;SDS011;10781;50.928;4.440;2023-02-28T17:46:46;8.45;;;3.75;;